Flight Track Log - Related Links

Times and Time Zones

All times are in EST time to prevent confusion due to time zone crossing. See the AMF1324 flight status page for this flight to view local times or setup timezone preferences in your user account.

Time Position Orientation Groundspeed Altitude Reporting Facility
EST Latitude Longitude Course Direction KTS MPH feet Rate Location/Type
Wed 08:21:43 AM 42.1628 -76.0361 297° West 166 191 5,600  Level New York Center
Wed 08:22:43 AM 42.1556 -76.1025 262° West 166 191 7,000 1,500 Climbing New York Center
Wed 08:23:43 AM 42.1714 -76.1653 289° West 171 197 8,600 1,550 Climbing New York Center
Wed 08:24:43 AM 42.1978 -76.2264 300° West 181 208 10,100 1,550 Climbing New York Center
Wed 08:25:43 AM 42.2242 -76.2875 300° West 186 214 11,700 900 Climbing New York Center
Wed 08:26:00 AM 42.2965 -76.2946 297° West  Level Estimated
Wed 08:26:43 AM 42.2503 -76.3511 299° West 186 214 11,900  Level New York Center
Wed 08:27:43 AM 42.2803 -76.4208 300° West 202 232 11,900  Level New York Center
Wed 08:28:43 AM 42.3225 -76.4975 307° West 215 247 11,900  Level New York Center
Wed 08:30:07 AM 42.3661 -76.5911 302° West 223 257 11,900  Level Cleveland Center
Wed 08:31:09 AM 42.3983 -76.6631 301° West 224 258 11,900 97 Level Cleveland Center
Wed 08:32:11 AM 42.4325 -76.7328 304° West 223 257 12,100 97 Climbing Cleveland Center
Wed 08:33:13 AM 42.4658 -76.8006 304° West 219 252 12,100  Level Cleveland Center
Wed 08:34:15 AM 42.4978 -76.8722 301° West 223 257 12,100  Level Cleveland Center
Wed 08:35:17 AM 42.5392 -76.9564 304° West 225 259 12,100  Level Cleveland Center
Wed 08:36:19 AM 42.5658 -77.0303 296° West 221 254 12,100 -48 Level Cleveland Center
Wed 08:37:21 AM 42.5944 -77.1058 297° West 225 259 12,000 -48 Descending Cleveland Center
Wed 08:38:23 AM 42.6211 -77.1817 296° West 225 259 12,000  Level Cleveland Center
Wed 08:39:25 AM 42.6461 -77.2581 294° West 223 257 12,000  Level Cleveland Center
Wed 08:40:27 AM 42.6725 -77.3344 295° West 224 258 12,000  Level Cleveland Center
Wed 08:41:29 AM 42.7019 -77.4261 294° West 223 257 12,000  Level Cleveland Center
Wed 08:42:31 AM 42.7292 -77.4997 297° West 221 254 12,000  Level Cleveland Center
Wed 08:43:33 AM 42.7614 -77.5692 302° West 221 254 12,000  Level Cleveland Center
Wed 08:44:00 AM 42.7836 -77.6019 313° West 219 252 12,000 -353 Level Cleveland Center
Wed 08:44:24 AM 42.8028 -77.6303 313° West 226 260 11,700 -514 Descending Cleveland Center
Wed 08:44:35 AM 42.8022 -77.6311 228° Southwest 222 255 11,700 -689 Level Cleveland Center
Wed 08:45:25 AM 42.8461 -77.6992 311° West 238 274 11,000 -774 Descending Cleveland Center
Wed 08:45:37 AM 42.8528 -77.7117 306° West 234 269 10,900 -1,054 Descending Cleveland Center
Wed 08:46:39 AM 42.8872 -77.7867 302° West 247 284 9,700 -1,043 Descending Cleveland Center
Wed 08:47:32 AM 42.8967 -77.8628 280° West 219 252 8,900 -871 Descending Cleveland Center
Wed 08:47:41 AM 42.8975 -77.8711 278° West 232 267 8,800 -1,014 Descending Cleveland Center
Wed 08:48:43 AM 42.9056 -77.9608 277° West 219 252 7,700 -919 Descending Cleveland Center
Wed 08:49:45 AM 42.9081 -78.0469 272° West 219 252 6,900 -968 Descending Cleveland Center
Wed 08:50:47 AM 42.9081 -78.1336 270° West 219 252 5,700 -1,104 Descending Cleveland Center
Wed 08:51:50 AM 42.9122 -78.2211 274° West 222 255 4,600 -816 Descending Cleveland Center
Wed 08:52:52 AM 42.9175 -78.3069 275° West 219 252 4,000 -290 Descending Cleveland Center
Wed 08:53:54 AM 42.9431 -78.3744 297° West 208 239 4,000 -339 Level Cleveland Center
Wed 08:54:56 AM 42.9697 -78.4514 295° West 213 245 3,300 -677 Descending Cleveland Center
Wed 08:55:58 AM 42.9764 -78.5283 277° West 194 223 2,600 -435 Descending Cleveland Center
Wed 08:57:00 AM 42.9761 -78.5975 270° West 176 203 2,400 -308 Descending Cleveland Center
Wed 08:57:55 AM 42.9833 -78.6333 285° West 110 127 2,000 -417 Descending Buffalo TRACON
Wed 08:58:55 AM 42.9667 -78.6833 246° West 110 127 1,600 -476 Descending Buffalo TRACON
Wed 09:00:01 AM 42.9500 -78.7167 236° Southwest 113 130 1,000 -545 Descending Buffalo TRACON
Wed 09:02:00 AM 42.9333 -78.7167 270° West  Level FlightAware Approximate

Login

Don't have an account? Register now (free) for customized features, flight alerts, and more!